Time;durP1;ratioP1;P1;durP2;ratioP2;P2;SDS_P1;SDS_P2;PMS_P1;PMS_P2;Temp;Humidity;BMP_temperature;BMP_pressure;BME280_temperature;BME280_humidity;BME280_pressure;Samples;Min_cycle;Max_cycle;Signal;HPM_P1;HPM_P2
2023/08/08 08:17:41;;;;;;;4.90;2.00;;;;;;;;;;5017846;28;20719;-44
2023/08/08 08:20:10;;;;;;;3.80;2.33;;;;;;;;;;5016663;28;20046;-44
2023/08/08 08:22:38;;;;;;;7.82;2.15;;;;;;;;;;5015494;28;20053;-45
2023/08/08 08:25:07;;;;;;;7.63;1.98;;;;;;;;;;5016360;28;20497;-45
2023/08/08 08:27:33;;;;;;;5.78;2.05;;;;;;;;;;5030680;28;20035;-45
2023/08/08 08:30:00;;;;;;;6.65;2.03;;;;;;;;;;5043823;28;20081;-45
2023/08/08 08:32:26;;;;;;;6.85;2.03;;;;;;;;;;5041773;28;20070;-45
2023/08/08 08:34:53;;;;;;;8.90;2.10;;;;;;;;;;5035563;28;20045;-46
2023/08/08 08:37:19;;;;;;;4.47;1.83;;;;;;;;;;5022559;28;20034;-45
2023/08/08 08:39:45;;;;;;;5.43;1.80;;;;;;;;;;5035015;28;20474;-45
2023/08/08 08:42:13;;;;;;;6.05;2.25;;;;;;;;;;5030847;28;20041;-45
2023/08/08 08:44:42;;;;;;;4.68;1.90;;;;;;;;;;5024162;28;20042;-45
2023/08/08 08:47:12;;;;;;;10.05;1.50;;;;;;;;;;5017526;28;20701;-45
2023/08/08 08:49:39;;;;;;;5.05;1.92;;;;;;;;;;5055534;28;20048;-45
2023/08/08 08:52:05;;;;;;;8.10;2.78;;;;;;;;;;5060296;28;20048;-45
2023/08/08 08:54:32;;;;;;;6.07;2.00;;;;;;;;;;5032006;28;20048;-44
2023/08/08 08:56:59;;;;;;;5.22;2.15;;;;;;;;;;5020912;28;20166;-45
2023/08/08 08:59:25;;;;;;;8.02;1.95;;;;;;;;;;5042440;28;20049;-45
2023/08/08 09:01:53;;;;;;;4.30;1.60;;;;;;;;;;5084979;27;20137;-45
2023/08/08 09:04:20;;;;;;;10.00;2.42;;;;;;;;;;5009459;28;20050;-45
2023/08/08 09:10:15;;;;;;;4.68;2.00;;;;;;;;;;5044496;28;20479;-45
2023/08/08 09:12:42;;;;;;;7.95;2.17;;;;;;;;;;5007159;28;20137;-45
2023/08/08 09:15:10;;;;;;;8.00;1.80;;;;;;;;;;5116988;28;20123;-45
2023/08/08 09:17:40;;;;;;;6.90;1.98;;;;;;;;;;5083771;27;20072;-44
2023/08/08 09:20:15;;;;;;;5.43;2.10;;;;;;;;;;5121259;27;20703;-45
2023/08/08 09:22:41;;;;;;;6.47;2.13;;;;;;;;;;5120121;27;20118;-45
2023/08/08 09:25:08;;;;;;;7.55;1.75;;;;;;;;;;5121187;28;20077;-45
2023/08/08 09:27:35;;;;;;;10.82;1.90;;;;;;;;;;5079277;27;20042;-45
2023/08/08 09:30:02;;;;;;;9.15;1.83;;;;;;;;;;5004417;28;20144;-46
2023/08/08 09:32:30;;;;;;;6.50;2.38;;;;;;;;;;5061172;28;20039;-44
2023/08/08 09:34:57;;;;;;;3.22;1.73;;;;;;;;;;5107336;28;20050;-45
2023/08/08 09:37:23;;;;;;;7.05;2.17;;;;;;;;;;5092679;28;20467;-48
2023/08/08 09:39:59;;;;;;;6.90;1.80;;;;;;;;;;5003933;28;20129;-45
2023/08/08 09:42:27;;;;;;;5.93;1.98;;;;;;;;;;5097579;28;20055;-45
2023/08/08 09:44:54;;;;;;;4.95;1.88;;;;;;;;;;5107061;28;20067;-45
2023/08/08 09:47:21;;;;;;;7.10;2.08;;;;;;;;;;5106595;28;20594;-45
2023/08/08 09:49:48;;;;;;;2.85;1.70;;;;;;;;;;5060817;28;20050;-45
2023/08/08 09:52:15;;;;;;;9.65;1.92;;;;;;;;;;5005113;28;20696;-45
2023/08/08 09:54:42;;;;;;;4.50;2.10;;;;;;;;;;4995784;28;20048;-45
2023/08/08 09:57:09;;;;;;;3.95;1.70;;;;;;;;;;5013437;28;20101;-45
2023/08/08 09:59:36;;;;;;;2.95;1.50;;;;;;;;;;5102081;28;20043;-45
2023/08/08 10:02:04;;;;;;;8.02;2.47;;;;;;;;;;5006081;28;20309;-45
2023/08/08 10:04:31;;;;;;;8.05;1.85;;;;;;;;;;5093037;28;20039;-44
2023/08/08 10:06:57;;;;;;;8.63;2.40;;;;;;;;;;5106848;28;20078;-45
2023/08/08 10:09:24;;;;;;;2.72;2.00;;;;;;;;;;5106016;28;20040;-45
2023/08/08 10:11:51;;;;;;;2.90;1.63;;;;;;;;;;5100626;28;20043;-45
2023/08/08 10:14:18;;;;;;;9.82;2.20;;;;;;;;;;5001916;28;20146;-46
2023/08/08 10:16:44;;;;;;;10.82;3.25;;;;;;;;;;5023223;28;20130;-46
2023/08/08 10:19:12;;;;;;;5.90;2.83;;;;;;;;;;4984123;28;20107;-46
2023/08/08 10:21:41;;;;;;;7.18;2.60;;;;;;;;;;5015367;28;20516;-46
2023/08/08 10:24:09;;;;;;;6.00;3.08;;;;;;;;;;5002395;28;20624;-47
2023/08/08 10:26:54;;;;;;;9.30;3.10;;;;;;;;;;5062863;28;20049;-46
2023/08/08 10:29:21;;;;;;;13.40;3.17;;;;;;;;;;4983520;28;20474;-45
2023/08/08 10:31:57;;;;;;;7.72;3.90;;;;;;;;;;5019384;28;20082;-47
2023/08/08 10:34:36;;;;;;;4.07;2.72;;;;;;;;;;5106065;28;20153;-46
2023/08/08 10:37:04;;;;;;;8.73;3.97;;;;;;;;;;5105992;28;20039;-47
2023/08/08 10:39:31;;;;;;;7.15;3.13;;;;;;;;;;5104639;28;20071;-45
2023/08/08 10:42:00;;;;;;;8.18;3.95;;;;;;;;;;5106003;28;20065;-46
2023/08/08 10:44:27;;;;;;;7.10;3.35;;;;;;;;;;5105646;28;20039;-46
2023/08/08 10:46:54;;;;;;;10.80;3.22;;;;;;;;;;5105722;28;20100;-46
2023/08/08 10:49:23;;;;;;;6.35;2.70;;;;;;;;;;5105467;28;20047;-47
2023/08/08 10:51:51;;;;;;;6.22;3.13;;;;;;;;;;5105875;28;20545;-47
2023/08/08 10:54:27;;;;;;;6.93;3.35;;;;;;;;;;5105331;28;20044;-47
2023/08/08 10:56:55;;;;;;;5.65;3.15;;;;;;;;;;5105630;28;20044;-47
2023/08/08 10:59:22;;;;;;;7.00;3.17;;;;;;;;;;5105425;28;20100;-47
2023/08/08 11:01:51;;;;;;;4.90;2.90;;;;;;;;;;5024452;28;20050;-45
2023/08/08 11:04:21;;;;;;;5.60;3.00;;;;;;;;;;5105296;28;20043;-46
2023/08/08 11:06:49;;;;;;;14.68;3.60;;;;;;;;;;5037596;28;20035;-45
2023/08/08 11:09:17;;;;;;;8.45;3.25;;;;;;;;;;5105357;28;20404;-46
2023/08/08 11:11:44;;;;;;;6.03;3.00;;;;;;;;;;5062566;28;20168;-46
2023/08/08 11:14:12;;;;;;;7.95;3.38;;;;;;;;;;5060612;28;20045;-49
2023/08/08 11:16:39;;;;;;;8.35;3.55;;;;;;;;;;5067131;28;20069;-49
2023/08/08 11:19:05;;;;;;;9.15;4.80;;;;;;;;;;5011107;28;20540;-48
2023/08/08 11:21:38;;;;;;;5.57;3.50;;;;;;;;;;5041335;28;20126;-50
2023/08/08 11:24:06;;;;;;;6.22;3.47;;;;;;;;;;5105568;28;20108;-49
2023/08/08 11:26:36;;;;;;;4.93;3.88;;;;;;;;;;5034509;28;20073;-47
2023/08/08 11:29:03;;;;;;;9.68;4.72;;;;;;;;;;5103500;28;20100;-52
2023/08/08 11:31:29;;;;;;;6.03;3.58;;;;;;;;;;4991280;28;20517;-48
2023/08/08 11:33:58;;;;;;;6.80;3.65;;;;;;;;;;5098834;28;20047;-47
2023/08/08 11:36:24;;;;;;;6.75;3.47;;;;;;;;;;5072865;28;20649;-47
2023/08/08 11:38:51;;;;;;;4.45;3.45;;;;;;;;;;5095141;28;20040;-48
2023/08/08 11:41:19;;;;;;;6.05;3.13;;;;;;;;;;5106265;28;20637;-48
2023/08/08 11:43:46;;;;;;;9.48;3.65;;;;;;;;;;5053654;28;20129;-49
2023/08/08 11:46:14;;;;;;;7.47;3.00;;;;;;;;;;5023467;28;20631;-54
2023/08/08 11:48:42;;;;;;;3.13;2.10;;;;;;;;;;5091709;28;20047;-49
2023/08/08 11:51:09;;;;;;;3.72;2.20;;;;;;;;;;5105911;28;20522;-49
2023/08/08 11:53:36;;;;;;;3.25;2.70;;;;;;;;;;5065705;28;20080;-48
2023/08/08 11:56:03;;;;;;;4.68;2.25;;;;;;;;;;5030440;28;20038;-48
2023/08/08 11:58:30;;;;;;;6.13;2.50;;;;;;;;;;5034526;28;20439;-48
2023/08/08 12:00:57;;;;;;;3.97;2.15;;;;;;;;;;4995931;28;20500;-48
2023/08/08 12:03:25;;;;;;;3.38;2.30;;;;;;;;;;4995881;28;20117;-48
2023/08/08 12:05:52;;;;;;;3.85;2.28;;;;;;;;;;5001974;28;20095;-47
2023/08/08 12:08:23;;;;;;;5.78;2.70;;;;;;;;;;5001657;28;20518;-48
2023/08/08 12:10:56;;;;;;;4.22;2.35;;;;;;;;;;5023564;28;20046;-47
2023/08/08 12:13:23;;;;;;;6.60;3.38;;;;;;;;;;5010940;28;20567;-49
2023/08/08 12:15:49;;;;;;;13.68;4.63;;;;;;;;;;4999175;28;20096;-49
2023/08/08 12:18:18;;;;;;;9.93;3.95;;;;;;;;;;5011814;28;20482;-48
2023/08/08 12:20:45;;;;;;;6.80;2.88;;;;;;;;;;5022950;28;20125;-48
2023/08/08 12:23:12;;;;;;;8.43;4.03;;;;;;;;;;5021725;28;20066;-47
2023/08/08 12:25:38;;;;;;;7.00;3.53;;;;;;;;;;5022811;28;20121;-48
2023/08/08 12:28:05;;;;;;;15.57;8.57;;;;;;;;;;5008337;28;20121;-48
2023/08/08 12:30:31;;;;;;;7.28;2.92;;;;;;;;;;5029968;28;20074;-48
2023/08/08 12:32:58;;;;;;;4.50;2.53;;;;;;;;;;5035192;28;20488;-48
2023/08/08 12:35:26;;;;;;;4.13;2.60;;;;;;;;;;5003344;28;20057;-48
2023/08/08 12:37:53;;;;;;;4.65;1.55;;;;;;;;;;5036555;28;20053;-48
2023/08/08 12:40:19;;;;;;;6.53;2.00;;;;;;;;;;5001341;28;20087;-47
2023/08/08 12:42:47;;;;;;;4.45;1.90;;;;;;;;;;5040265;28;20492;-49
2023/08/08 12:45:14;;;;;;;9.43;2.67;;;;;;;;;;5007983;28;20038;-48
2023/08/08 12:47:40;;;;;;;5.03;1.50;;;;;;;;;;4989589;28;20521;-47
2023/08/08 12:50:10;;;;;;;4.03;1.80;;;;;;;;;;4987213;28;20542;-47
2023/08/08 12:52:37;;;;;;;4.53;2.85;;;;;;;;;;5003642;28;20074;-48
2023/08/08 12:55:04;;;;;;;7.30;2.08;;;;;;;;;;5021444;28;20489;-48
2023/08/08 12:57:31;;;;;;;5.63;2.72;;;;;;;;;;5038956;28;20038;-47
2023/08/08 12:59:57;;;;;;;4.25;1.58;;;;;;;;;;5009657;28;20043;-50
